createdAt,value
2023-05-08T00:01:08.489Z,2.90
2023-05-08T00:03:35.407Z,3.50
2023-05-08T00:06:05.968Z,3.50
2023-05-08T00:08:33.032Z,3.37
2023-05-08T00:10:59.761Z,3.30
2023-05-08T00:13:26.719Z,4.03
2023-05-08T00:15:53.498Z,4.40
2023-05-08T00:18:20.226Z,4.17
2023-05-08T00:20:47.003Z,5.93
2023-05-08T00:23:13.826Z,4.90
2023-05-08T00:25:40.726Z,5.50
2023-05-08T00:28:07.436Z,4.90
2023-05-08T00:30:34.195Z,4.33
2023-05-08T00:33:00.935Z,5.20
2023-05-08T00:35:27.699Z,4.63
2023-05-08T00:37:54.464Z,5.33
2023-05-08T00:40:21.404Z,5.60
2023-05-08T00:42:48.110Z,5.87
2023-05-08T00:45:14.970Z,7.33
2023-05-08T00:47:42.279Z,7.07
2023-05-08T00:50:10.641Z,5.33
2023-05-08T00:52:38.466Z,7.10
2023-05-08T00:55:07.258Z,7.13
2023-05-08T00:57:35.701Z,6.50
2023-05-08T01:00:04.442Z,6.93
2023-05-08T01:02:32.069Z,6.83
2023-05-08T01:04:59.028Z,6.70
2023-05-08T01:07:26.093Z,6.83
2023-05-08T01:09:53.444Z,6.57
2023-05-08T01:12:40.755Z,5.90
2023-05-08T01:15:21.645Z,6.40
2023-05-08T01:18:16.248Z,6.30
2023-05-08T01:21:39.458Z,6.00
2023-05-08T01:24:27.052Z,6.07
2023-05-08T01:27:11.868Z,6.70
2023-05-08T01:29:59.893Z,5.43
2023-05-08T01:32:50.992Z,5.67
2023-05-08T01:35:23.961Z,5.87
2023-05-08T01:37:59.868Z,5.13
2023-05-08T01:40:51.531Z,6.10
2023-05-08T01:43:40.218Z,5.27
2023-05-08T01:46:26.149Z,4.50
2023-05-08T01:49:03.759Z,5.63
2023-05-08T01:51:40.392Z,6.17
2023-05-08T01:54:10.944Z,6.53
2023-05-08T01:56:39.870Z,6.37
2023-05-08T01:59:08.657Z,6.10
2023-05-08T02:01:36.873Z,5.63
2023-05-08T02:04:06.509Z,6.10
2023-05-08T02:06:34.794Z,6.20
2023-05-08T02:09:02.130Z,6.10
2023-05-08T02:11:32.109Z,5.50
2023-05-08T02:14:01.541Z,6.03
2023-05-08T02:16:29.865Z,4.90
2023-05-08T02:18:58.654Z,4.77
2023-05-08T02:21:26.543Z,4.70
2023-05-08T02:23:56.095Z,5.50
2023-05-08T02:26:24.273Z,5.87
2023-05-08T02:28:56.135Z,4.93
2023-05-08T02:31:24.148Z,6.23
2023-05-08T02:33:52.647Z,6.00
2023-05-08T02:36:20.352Z,5.80
2023-05-08T02:38:54.134Z,5.87
2023-05-08T02:41:25.223Z,6.13
2023-05-08T02:43:52.770Z,6.03
2023-05-08T02:46:27.746Z,5.47
2023-05-08T02:49:07.205Z,5.10
2023-05-08T02:51:46.945Z,5.73
2023-05-08T02:54:31.055Z,6.13
2023-05-08T02:57:08.749Z,5.93
2023-05-08T02:59:51.831Z,6.33
2023-05-08T03:02:35.465Z,6.73
2023-05-08T03:05:18.992Z,7.00
2023-05-08T03:07:50.036Z,7.23
2023-05-08T03:10:21.668Z,7.17
2023-05-08T03:12:52.024Z,6.53
2023-05-08T03:15:29.440Z,6.13
2023-05-08T03:18:00.645Z,5.83
2023-05-08T03:20:32.542Z,5.70
2023-05-08T03:23:02.679Z,6.50
2023-05-08T03:25:32.503Z,6.67
2023-05-08T03:28:00.526Z,7.13
2023-05-08T03:30:28.060Z,7.37
2023-05-08T03:33:04.852Z,7.90
2023-05-08T03:35:34.918Z,9.33
2023-05-08T03:38:02.452Z,8.93
2023-05-08T03:40:29.514Z,9.43
2023-05-08T03:42:56.795Z,8.63
2023-05-08T03:45:24.991Z,10.07
2023-05-08T03:47:53.850Z,9.83
2023-05-08T03:50:21.845Z,10.67
2023-05-08T03:52:49.029Z,11.80
2023-05-08T03:55:16.098Z,10.67
2023-05-08T03:58:06.188Z,9.80
2023-05-08T04:00:52.154Z,10.80
2023-05-08T04:03:52.853Z,10.83
2023-05-08T04:06:42.041Z,11.13
2023-05-08T04:09:35.937Z,10.27
2023-05-08T04:12:09.608Z,10.03
2023-05-08T04:14:45.414Z,10.50
2023-05-08T04:17:17.610Z,11.57
2023-05-08T04:19:48.513Z,11.40
2023-05-08T04:22:17.915Z,10.90
2023-05-08T04:24:47.421Z,11.50
2023-05-08T04:27:15.274Z,11.40
2023-05-08T04:29:42.537Z,11.27
2023-05-08T04:32:11.666Z,10.83
2023-05-08T04:34:39.229Z,11.03
2023-05-08T04:37:08.010Z,11.10
2023-05-08T04:39:35.337Z,11.63
2023-05-08T04:42:04.677Z,10.87
2023-05-08T04:44:33.749Z,11.00
2023-05-08T04:47:00.779Z,10.57
2023-05-08T04:49:27.537Z,10.53
2023-05-08T04:51:54.381Z,10.07
2023-05-08T04:54:21.215Z,9.40
2023-05-08T04:56:47.977Z,9.57
2023-05-08T04:59:16.074Z,9.67
2023-05-08T05:01:43.196Z,9.80
2023-05-08T05:04:10.177Z,9.70
2023-05-08T05:06:36.991Z,8.80
2023-05-08T05:09:04.807Z,9.63
2023-05-08T05:11:31.847Z,9.17
2023-05-08T05:13:58.606Z,9.47
2023-05-08T05:16:25.495Z,9.57
2023-05-08T05:18:52.329Z,9.77
2023-05-08T05:21:19.943Z,9.87
2023-05-08T05:23:46.817Z,10.37
2023-05-08T05:26:13.623Z,9.33
2023-05-08T05:28:40.674Z,9.60
2023-05-08T05:31:07.795Z,10.53
2023-05-08T05:33:34.738Z,10.57
2023-05-08T05:36:01.598Z,9.87
2023-05-08T05:38:28.587Z,10.10
2023-05-08T05:40:55.444Z,9.93
2023-05-08T05:43:22.323Z,9.60
2023-05-08T05:45:49.186Z,10.30
2023-05-08T05:48:16.512Z,9.90
2023-05-08T05:50:43.545Z,9.03
2023-05-08T05:53:10.660Z,9.67
2023-05-08T05:55:37.523Z,10.23
2023-05-08T05:58:04.394Z,9.60
2023-05-08T06:00:32.856Z,10.27
2023-05-08T06:03:00.385Z,9.37
2023-05-08T06:05:27.381Z,10.03
2023-05-08T06:07:54.230Z,10.03
2023-05-08T06:10:21.063Z,9.90
2023-05-08T06:12:48.006Z,9.63
2023-05-08T06:15:15.902Z,9.53
2023-05-08T06:17:45.339Z,9.47
2023-05-08T06:20:13.082Z,9.87
2023-05-08T06:22:40.266Z,9.73
2023-05-08T06:25:08.383Z,9.53
2023-05-08T06:27:35.873Z,9.10
2023-05-08T06:30:04.710Z,9.27
2023-05-08T06:32:31.559Z,9.07
2023-05-08T06:34:58.320Z,9.77
2023-05-08T06:37:25.097Z,10.33
2023-05-08T06:40:03.790Z,9.90
2023-05-08T06:42:37.474Z,9.57
2023-05-08T06:45:05.101Z,8.53
2023-05-08T06:47:31.934Z,8.67
2023-05-08T06:49:58.731Z,9.13
2023-05-08T06:52:25.805Z,9.20
2023-05-08T06:54:52.722Z,9.03
2023-05-08T06:57:19.498Z,9.20
2023-05-08T06:59:46.286Z,8.67
2023-05-08T07:02:13.108Z,8.00
2023-05-08T07:04:40.042Z,8.87
2023-05-08T07:07:07.783Z,9.83
2023-05-08T07:09:34.579Z,8.47
2023-05-08T07:12:01.320Z,8.20
2023-05-08T07:14:28.552Z,8.50
2023-05-08T07:16:55.286Z,8.57
2023-05-08T07:19:22.645Z,8.13
2023-05-08T07:21:49.600Z,8.57
2023-05-08T07:24:16.434Z,7.90
2023-05-08T07:26:43.224Z,8.13
2023-05-08T07:29:10.041Z,8.03
2023-05-08T07:31:40.833Z,7.87
2023-05-08T07:34:07.719Z,7.63
2023-05-08T07:36:34.571Z,8.37
2023-05-08T07:39:01.309Z,7.87
2023-05-08T07:41:28.088Z,8.53
2023-05-08T07:43:54.848Z,7.27
2023-05-08T07:46:21.841Z,7.60
2023-05-08T07:48:48.965Z,8.47
2023-05-08T07:51:15.912Z,7.70
2023-05-08T07:53:43.399Z,7.70
2023-05-08T07:56:10.236Z,8.00
2023-05-08T07:58:37.086Z,7.37
2023-05-08T08:01:03.982Z,7.77
2023-05-08T08:03:30.860Z,8.13
2023-05-08T08:05:57.675Z,8.03
2023-05-08T08:08:24.482Z,7.43
2023-05-08T08:10:51.900Z,7.80
2023-05-08T08:13:18.806Z,8.23
2023-05-08T08:15:45.594Z,8.27
2023-05-08T08:18:13.023Z,7.90
2023-05-08T08:20:40.049Z,8.43
2023-05-08T08:23:06.980Z,8.03
2023-05-08T08:25:33.838Z,8.50
2023-05-08T08:28:00.948Z,8.07
2023-05-08T08:30:27.859Z,8.63
2023-05-08T08:32:54.732Z,8.40
2023-05-08T08:35:22.928Z,8.37
2023-05-08T08:37:50.299Z,9.07
2023-05-08T08:40:17.085Z,8.10
2023-05-08T08:42:43.906Z,8.57
2023-05-08T08:45:11.305Z,8.63
2023-05-08T08:47:41.712Z,8.03
2023-05-08T08:50:11.980Z,7.97
2023-05-08T08:52:47.616Z,8.23
2023-05-08T08:55:16.979Z,8.17
2023-05-08T08:58:26.723Z,8.50
2023-05-08T09:00:55.095Z,7.97
2023-05-08T09:03:21.996Z,8.07
2023-05-08T09:05:49.683Z,8.23
2023-05-08T09:08:18.821Z,8.17
2023-05-08T09:10:46.723Z,8.87
2023-05-08T09:13:13.671Z,8.70
2023-05-08T09:15:40.858Z,8.90
2023-05-08T09:18:07.707Z,9.00
2023-05-08T09:20:35.201Z,9.30
2023-05-08T09:23:04.934Z,8.77
2023-05-08T09:25:42.584Z,8.63
2023-05-08T09:28:23.468Z,8.73
2023-05-08T09:30:57.950Z,9.83
2023-05-08T09:33:27.147Z,9.70
2023-05-08T09:35:57.397Z,9.90
2023-05-08T09:38:34.504Z,9.00
2023-05-08T09:41:15.752Z,8.87
2023-05-08T09:43:44.253Z,9.23
2023-05-08T09:46:23.020Z,9.37
2023-05-08T09:48:51.580Z,8.57
2023-05-08T09:51:18.455Z,9.63
2023-05-08T09:53:45.610Z,8.93
2023-05-08T09:56:12.670Z,9.00
2023-05-08T09:58:44.255Z,8.33
2023-05-08T10:01:34.803Z,9.40
2023-05-08T10:04:02.480Z,9.03
2023-05-08T10:06:30.039Z,8.97
2023-05-08T10:09:14.539Z,9.30
2023-05-08T10:11:51.861Z,9.77
2023-05-08T10:14:19.489Z,9.37
2023-05-08T10:16:52.683Z,9.03
2023-05-08T10:19:24.477Z,9.77
2023-05-08T10:21:56.220Z,9.03
2023-05-08T10:24:33.659Z,8.93
2023-05-08T10:27:27.890Z,9.27
2023-05-08T10:29:56.568Z,9.57
2023-05-08T10:32:24.760Z,9.57
2023-05-08T10:35:00.690Z,9.43
2023-05-08T10:37:30.236Z,9.07
2023-05-08T10:39:58.797Z,8.70
2023-05-08T10:42:27.584Z,8.83
2023-05-08T10:44:55.251Z,8.53
2023-05-08T10:47:46.331Z,8.93
2023-05-08T10:50:44.346Z,9.00
2023-05-08T10:53:29.064Z,8.97
2023-05-08T10:55:56.230Z,8.60
2023-05-08T10:58:32.291Z,8.00
2023-05-08T11:01:07.968Z,8.20
2023-05-08T11:03:42.738Z,7.80
2023-05-08T11:06:10.114Z,8.47
2023-05-08T11:08:49.445Z,8.00
2023-05-08T11:11:26.568Z,7.57
2023-05-08T11:14:19.723Z,7.03
2023-05-08T11:16:59.847Z,6.90
2023-05-08T11:19:28.335Z,8.23
2023-05-08T11:22:15.431Z,7.70
2023-05-08T11:24:50.186Z,6.80
2023-05-08T11:27:17.313Z,7.00
2023-05-08T11:29:45.068Z,7.37
2023-05-08T11:32:12.130Z,7.67
2023-05-08T11:34:48.702Z,7.03
2023-05-08T11:37:20.742Z,7.20
2023-05-08T11:39:48.228Z,7.63
2023-05-08T11:42:27.320Z,7.13
2023-05-08T11:45:13.682Z,6.77
2023-05-08T11:47:44.877Z,6.50
2023-05-08T11:50:13.368Z,6.80
2023-05-08T11:52:42.064Z,6.40
2023-05-08T11:55:15.678Z,6.37
2023-05-08T11:57:42.424Z,6.60
2023-05-08T12:00:11.418Z,6.60
2023-05-08T12:02:43.876Z,6.80
2023-05-08T12:05:11.521Z,6.00
2023-05-08T12:07:46.639Z,7.23
2023-05-08T12:10:15.280Z,7.60
2023-05-08T12:12:44.074Z,11.33
2023-05-08T12:15:13.643Z,10.30
2023-05-08T12:17:41.399Z,9.17
2023-05-08T12:20:17.410Z,9.90
2023-05-08T12:22:52.555Z,9.37
2023-05-08T12:25:19.819Z,9.67
2023-05-08T12:27:46.836Z,9.20
2023-05-08T12:30:14.930Z,9.53
2023-05-08T12:32:43.168Z,9.33
2023-05-08T12:35:11.746Z,10.30
2023-05-08T12:37:39.096Z,10.27
2023-05-08T12:40:07.190Z,9.27
2023-05-08T12:42:46.414Z,10.20
2023-05-08T12:45:19.209Z,9.47
2023-05-08T12:47:50.166Z,10.30
2023-05-08T12:50:18.629Z,9.30
2023-05-08T12:52:45.761Z,9.60
2023-05-08T12:55:27.283Z,10.00
2023-05-08T12:58:15.260Z,9.30
2023-05-08T13:00:49.825Z,9.97
2023-05-08T13:03:28.077Z,8.87
2023-05-08T13:05:57.026Z,9.50
2023-05-08T13:08:34.358Z,8.70
2023-05-08T13:11:02.550Z,8.70
2023-05-08T13:13:34.800Z,8.93
2023-05-08T13:16:07.007Z,9.27
2023-05-08T13:18:36.675Z,8.97
2023-05-08T13:21:03.818Z,8.60
2023-05-08T13:23:30.589Z,8.30
2023-05-08T13:25:57.437Z,8.93
2023-05-08T13:28:24.265Z,9.27
2023-05-08T13:30:51.088Z,8.27
2023-05-08T13:33:17.973Z,8.30
2023-05-08T13:35:44.882Z,7.83
2023-05-08T13:38:11.633Z,8.63
2023-05-08T13:40:38.499Z,8.50
2023-05-08T13:43:05.671Z,8.10
2023-05-08T13:45:33.179Z,7.53
2023-05-08T13:48:00.228Z,7.80
2023-05-08T13:50:27.093Z,7.83
2023-05-08T13:52:55.100Z,7.97
2023-05-08T13:55:23.094Z,8.47
2023-05-08T13:57:50.614Z,7.67
2023-05-08T14:00:18.277Z,7.30
2023-05-08T14:02:45.246Z,7.30
2023-05-08T14:05:12.394Z,7.40
2023-05-08T14:07:39.416Z,7.67
2023-05-08T14:10:06.521Z,7.70
2023-05-08T14:12:36.162Z,7.93
2023-05-08T14:15:05.071Z,9.20
2023-05-08T14:17:32.366Z,8.53
2023-05-08T14:19:59.220Z,7.97
2023-05-08T14:22:26.063Z,8.60
2023-05-08T14:24:53.114Z,8.30
2023-05-08T14:27:20.225Z,8.90
2023-05-08T14:29:47.112Z,9.00
2023-05-08T14:32:13.944Z,8.27
2023-05-08T14:34:40.705Z,8.03
2023-05-08T14:37:07.566Z,8.20
2023-05-08T14:39:34.384Z,7.77
2023-05-08T14:42:21.424Z,8.33
2023-05-08T14:44:48.751Z,8.50
2023-05-08T14:47:15.692Z,8.30
2023-05-08T14:49:42.449Z,8.47
2023-05-08T14:52:09.230Z,7.40
2023-05-08T14:54:36.251Z,7.30
2023-05-08T14:57:03.290Z,8.17
2023-05-08T14:59:30.053Z,6.80
2023-05-08T15:01:57.012Z,7.17
2023-05-08T15:04:23.908Z,8.13
2023-05-08T15:06:50.657Z,7.73
2023-05-08T15:09:17.707Z,8.00
2023-05-08T15:11:44.744Z,8.90
2023-05-08T15:14:11.613Z,9.37
2023-05-08T15:16:38.481Z,8.87
2023-05-08T15:19:05.336Z,8.67
2023-05-08T15:21:32.214Z,9.17
2023-05-08T15:23:59.087Z,10.10
2023-05-08T15:26:26.023Z,8.53
2023-05-08T15:28:52.930Z,9.73
2023-05-08T15:31:19.712Z,9.10
2023-05-08T15:33:47.755Z,9.43
2023-05-08T15:36:14.842Z,9.63
2023-05-08T15:38:42.617Z,9.93
2023-05-08T15:41:14.821Z,10.77
2023-05-08T15:43:42.883Z,10.97
2023-05-08T15:46:09.874Z,11.80
2023-05-08T15:48:36.705Z,11.03
2023-05-08T15:51:03.718Z,11.90
2023-05-08T15:53:30.491Z,12.27
2023-05-08T15:55:57.525Z,11.70
2023-05-08T15:58:24.687Z,11.77
2023-05-08T16:00:51.799Z,10.20
2023-05-08T16:03:19.216Z,11.33
2023-05-08T16:05:46.267Z,9.33
2023-05-08T16:08:13.696Z,8.80
2023-05-08T16:10:41.392Z,10.07
2023-05-08T16:13:08.605Z,10.57
2023-05-08T16:15:35.568Z,9.83
2023-05-08T16:18:02.940Z,11.50
2023-05-08T16:20:30.048Z,10.87
2023-05-08T16:22:57.359Z,12.10
2023-05-08T16:25:24.570Z,11.63
2023-05-08T16:27:52.033Z,11.97
2023-05-08T16:30:18.898Z,12.23
2023-05-08T16:32:46.125Z,12.60
2023-05-08T16:35:13.607Z,12.40
2023-05-08T16:37:40.677Z,11.33
2023-05-08T16:40:08.859Z,12.50
2023-05-08T16:42:36.892Z,12.93
2023-05-08T16:45:07.690Z,13.60
2023-05-08T16:47:34.744Z,12.70
2023-05-08T16:50:01.640Z,11.57
2023-05-08T16:52:28.530Z,10.57
2023-05-08T16:54:55.411Z,14.67
2023-05-08T16:57:22.257Z,13.93
2023-05-08T16:59:49.136Z,14.20
2023-05-08T17:02:18.896Z,14.17
2023-05-08T17:04:49.404Z,12.57
2023-05-08T17:07:16.924Z,12.93
2023-05-08T17:09:44.241Z,11.60
2023-05-08T17:12:10.997Z,10.93
2023-05-08T17:14:39.440Z,12.37
2023-05-08T17:17:06.946Z,12.33
2023-05-08T17:19:34.042Z,11.03
2023-05-08T17:22:00.902Z,11.07
2023-05-08T17:24:29.608Z,10.47
2023-05-08T17:26:56.471Z,8.97
2023-05-08T17:29:23.237Z,11.10
2023-05-08T17:31:50.065Z,11.30
2023-05-08T17:34:17.158Z,10.33
2023-05-08T17:36:44.212Z,12.43
2023-05-08T17:39:11.472Z,13.90
2023-05-08T17:41:38.226Z,14.27
2023-05-08T17:44:05.055Z,14.17
2023-05-08T17:46:31.925Z,12.20
2023-05-08T17:48:58.663Z,13.70
2023-05-08T17:51:25.651Z,11.47
2023-05-08T17:53:53.144Z,10.60
2023-05-08T17:56:23.148Z,12.40
2023-05-08T17:58:52.296Z,13.13
2023-05-08T18:01:20.171Z,15.23
2023-05-08T18:03:50.240Z,13.27
2023-05-08T18:06:18.353Z,13.07
2023-05-08T18:08:45.965Z,14.40
2023-05-08T18:11:26.355Z,14.27
2023-05-08T18:13:54.240Z,11.47
2023-05-08T18:16:22.038Z,10.73
2023-05-08T18:18:49.912Z,10.43
2023-05-08T18:21:16.907Z,9.73
2023-05-08T18:23:43.859Z,12.60
2023-05-08T18:26:15.074Z,9.87
2023-05-08T18:28:42.202Z,9.53
2023-05-08T18:31:09.149Z,11.57
2023-05-08T18:33:37.064Z,15.90
2023-05-08T18:36:07.080Z,14.47
2023-05-08T18:38:34.914Z,15.17
2023-05-08T18:41:03.117Z,15.23
2023-05-08T18:43:29.860Z,13.37
2023-05-08T18:45:57.687Z,12.60
2023-05-08T18:48:26.198Z,12.70
2023-05-08T18:50:53.108Z,11.00
2023-05-08T18:53:20.004Z,11.07
2023-05-08T18:55:46.796Z,9.93
2023-05-08T18:58:13.569Z,11.07
2023-05-08T19:00:40.506Z,14.20
2023-05-08T19:03:07.371Z,11.60
2023-05-08T19:05:34.177Z,11.90
2023-05-08T19:08:00.946Z,11.83
2023-05-08T19:10:27.785Z,15.67
2023-05-08T19:12:54.597Z,15.80
2023-05-08T19:15:21.494Z,14.93
2023-05-08T19:17:48.319Z,13.87
2023-05-08T19:20:15.563Z,12.73
2023-05-08T19:22:42.566Z,14.90
2023-05-08T19:25:09.975Z,17.93
2023-05-08T19:27:36.844Z,13.97
2023-05-08T19:30:04.212Z,16.57
2023-05-08T19:32:31.098Z,16.30
2023-05-08T19:34:57.981Z,15.47
2023-05-08T19:37:25.211Z,15.93
2023-05-08T19:39:51.980Z,16.87
2023-05-08T19:42:18.707Z,18.73
2023-05-08T19:44:45.512Z,18.67
2023-05-08T19:47:13.252Z,18.00
2023-05-08T19:49:40.197Z,18.03
2023-05-08T19:52:06.994Z,19.60
2023-05-08T19:54:33.825Z,18.23
2023-05-08T19:57:00.590Z,17.43
2023-05-08T19:59:27.615Z,17.80
2023-05-08T20:01:54.567Z,19.63
2023-05-08T20:04:21.495Z,19.50
2023-05-08T20:06:48.368Z,21.30
2023-05-08T20:09:15.267Z,19.73
2023-05-08T20:11:42.066Z,19.60
2023-05-08T20:14:08.864Z,20.67
2023-05-08T20:16:36.011Z,19.77
2023-05-08T20:19:02.986Z,18.33
2023-05-08T20:21:32.420Z,16.80
2023-05-08T20:23:59.780Z,16.93
2023-05-08T20:26:29.738Z,17.07
2023-05-08T20:28:57.353Z,14.77
2023-05-08T20:31:25.806Z,14.63
2023-05-08T20:33:52.826Z,12.47
2023-05-08T20:36:20.318Z,11.17
2023-05-08T20:38:47.110Z,10.37
2023-05-08T20:41:13.861Z,9.50
2023-05-08T20:43:40.634Z,10.13
2023-05-08T20:46:07.459Z,12.87
2023-05-08T20:48:34.248Z,18.83
2023-05-08T20:51:01.099Z,21.50
2023-05-08T20:53:27.846Z,20.50
2023-05-08T20:56:05.069Z,20.27
2023-05-08T20:58:31.947Z,20.87
2023-05-08T21:00:58.760Z,20.73
2023-05-08T21:03:25.628Z,20.33
2023-05-08T21:05:54.692Z,21.03
2023-05-08T21:08:26.472Z,21.13
2023-05-08T21:10:53.230Z,22.13
2023-05-08T21:13:20.203Z,21.53
2023-05-08T21:15:52.943Z,20.70
2023-05-08T21:18:21.000Z,18.10
2023-05-08T21:20:50.649Z,18.50
2023-05-08T21:23:18.735Z,18.93
2023-05-08T21:25:46.989Z,20.93
2023-05-08T21:28:15.129Z,19.83
2023-05-08T21:30:45.635Z,18.60
2023-05-08T21:33:16.137Z,15.43
2023-05-08T21:35:43.380Z,14.47
2023-05-08T21:38:12.073Z,14.03
2023-05-08T21:40:39.059Z,13.37
2023-05-08T21:43:05.890Z,17.90
2023-05-08T21:45:32.985Z,18.83
2023-05-08T21:48:00.752Z,19.67
2023-05-08T21:50:30.715Z,18.50
2023-05-08T21:52:57.612Z,17.17
2023-05-08T21:55:24.534Z,19.57
2023-05-08T21:57:52.022Z,17.70
2023-05-08T22:00:20.073Z,18.97
2023-05-08T22:02:47.073Z,19.23
2023-05-08T22:05:14.488Z,17.80
2023-05-08T22:07:41.752Z,17.93
2023-05-08T22:10:10.342Z,17.47
2023-05-08T22:12:37.154Z,15.37
2023-05-08T22:15:14.998Z,15.43
2023-05-08T22:17:50.527Z,14.13
2023-05-08T22:20:18.111Z,13.57
2023-05-08T22:22:45.117Z,15.70
2023-05-08T22:25:12.051Z,14.37
2023-05-08T22:27:39.190Z,12.60
2023-05-08T22:30:06.857Z,12.47
2023-05-08T22:32:33.823Z,11.53
2023-05-08T22:35:00.609Z,12.37
2023-05-08T22:37:27.545Z,12.80
2023-05-08T22:39:54.330Z,11.33
2023-05-08T22:42:21.078Z,11.90
2023-05-08T22:44:48.122Z,10.60
2023-05-08T22:47:15.109Z,11.17
2023-05-08T22:49:42.526Z,11.20
2023-05-08T22:52:09.995Z,11.40
2023-05-08T22:54:36.760Z,11.33
2023-05-08T22:57:03.918Z,10.97
2023-05-08T22:59:30.937Z,10.47
2023-05-08T23:01:57.750Z,10.90
2023-05-08T23:04:24.660Z,10.27
2023-05-08T23:06:51.456Z,11.10
2023-05-08T23:09:18.247Z,11.13
2023-05-08T23:11:44.997Z,11.80
2023-05-08T23:14:11.783Z,11.57
2023-05-08T23:16:38.605Z,10.57
2023-05-08T23:19:05.529Z,10.93
2023-05-08T23:21:32.779Z,10.57
2023-05-08T23:23:59.527Z,10.03
2023-05-08T23:26:26.363Z,12.07
2023-05-08T23:28:53.089Z,11.23
2023-05-08T23:31:19.904Z,11.30
2023-05-08T23:33:46.684Z,11.33
2023-05-08T23:36:13.436Z,10.57
2023-05-08T23:38:40.454Z,11.13
2023-05-08T23:41:07.792Z,11.70
2023-05-08T23:43:34.566Z,11.43
2023-05-08T23:46:01.344Z,11.50
2023-05-08T23:48:28.253Z,10.83
2023-05-08T23:50:55.037Z,12.37
2023-05-08T23:53:21.924Z,12.13
2023-05-08T23:55:52.364Z,9.70
2023-05-08T23:58:19.211Z,9.43
